createdAt,value
2023-05-04T00:01:18.700Z,4.80
2023-05-04T00:06:24.909Z,4.70
2023-05-04T00:11:30.652Z,4.20
2023-05-04T00:16:38.163Z,4.50
2023-05-04T00:21:44.877Z,4.70
2023-05-04T00:26:51.202Z,4.50
2023-05-04T00:31:57.651Z,4.70
2023-05-04T00:37:04.058Z,4.60
2023-05-04T00:42:11.508Z,4.80
2023-05-04T00:47:20.029Z,4.80
2023-05-04T00:52:26.544Z,4.40
2023-05-04T00:57:32.214Z,4.00
2023-05-04T01:02:38.002Z,4.00
2023-05-04T01:08:02.665Z,3.80
2023-05-04T01:13:17.004Z,4.00
2023-05-04T01:18:23.868Z,3.90
2023-05-04T01:23:29.570Z,3.70
2023-05-04T01:29:10.819Z,4.00
2023-05-04T01:34:17.428Z,4.00
2023-05-04T01:39:23.736Z,3.90
2023-05-04T01:44:29.548Z,3.70
2023-05-04T01:49:35.191Z,3.70
2023-05-04T01:54:41.873Z,3.60
2023-05-04T01:59:47.509Z,3.30
2023-05-04T02:04:54.422Z,3.40
2023-05-04T02:10:00.672Z,3.20
2023-05-04T02:15:08.613Z,3.30
2023-05-04T02:20:15.726Z,3.20
2023-05-04T02:25:22.553Z,3.00
2023-05-04T02:30:28.940Z,2.90
2023-05-04T02:35:35.066Z,3.00
2023-05-04T02:40:41.849Z,3.00
2023-05-04T02:45:47.805Z,3.20
2023-05-04T02:50:53.596Z,3.10
2023-05-04T02:55:59.512Z,3.10
2023-05-04T03:01:06.432Z,3.10
2023-05-04T03:06:12.293Z,3.00
2023-05-04T03:11:20.254Z,2.80
2023-05-04T03:16:25.919Z,3.00
2023-05-04T03:21:32.152Z,2.90
2023-05-04T03:26:39.852Z,3.00
2023-05-04T03:31:46.460Z,2.90
2023-05-04T03:36:52.665Z,2.80
2023-05-04T03:41:58.734Z,2.90
2023-05-04T03:47:04.735Z,2.70
2023-05-04T03:52:11.304Z,3.10
2023-05-04T03:57:17.532Z,3.20
2023-05-04T04:02:23.426Z,3.40
2023-05-04T04:07:29.768Z,3.40
2023-05-04T04:12:35.779Z,3.00
2023-05-04T04:17:42.906Z,3.20
2023-05-04T04:22:49.279Z,3.10
2023-05-04T04:27:57.429Z,2.80
2023-05-04T04:33:03.732Z,3.50
2023-05-04T04:38:09.888Z,3.80
2023-05-04T04:43:16.060Z,4.10
2023-05-04T04:48:23.746Z,4.60
2023-05-04T04:53:29.175Z,4.90
2023-05-04T04:58:38.835Z,5.10
2023-05-04T05:03:45.800Z,5.40
2023-05-04T05:08:53.302Z,5.70
2023-05-04T05:13:59.985Z,6.10
2023-05-04T05:19:06.233Z,6.50
2023-05-04T05:24:12.834Z,6.90
2023-05-04T05:29:18.252Z,7.20
2023-05-04T05:34:24.042Z,7.40
2023-05-04T05:39:30.193Z,7.70
2023-05-04T05:44:38.733Z,7.90
2023-05-04T05:49:46.375Z,8.30
2023-05-04T05:54:52.556Z,8.30
2023-05-04T05:59:59.278Z,9.00
2023-05-04T06:05:05.505Z,9.20
2023-05-04T06:10:12.873Z,9.50
2023-05-04T06:15:19.399Z,9.60
2023-05-04T06:20:25.384Z,10.10
2023-05-04T06:25:32.050Z,10.50
2023-05-04T06:30:37.740Z,10.90
2023-05-04T06:35:45.574Z,11.00
2023-05-04T06:40:52.015Z,11.50
2023-05-04T06:46:00.194Z,11.80
2023-05-04T06:51:06.203Z,12.20
2023-05-04T06:56:12.431Z,12.50
2023-05-04T07:01:18.624Z,12.90
2023-05-04T07:06:26.471Z,13.30
2023-05-04T07:11:32.760Z,13.30
2023-05-04T07:16:38.718Z,13.60
2023-05-04T07:21:44.340Z,13.30
2023-05-04T07:26:49.954Z,13.40
2023-05-04T07:31:55.947Z,13.50
2023-05-04T07:37:02.188Z,13.70
2023-05-04T07:42:09.897Z,14.00
2023-05-04T07:47:15.690Z,13.70
2023-05-04T07:52:21.536Z,14.40
2023-05-04T07:57:27.830Z,14.40
2023-05-04T08:02:33.430Z,14.60
2023-05-04T08:07:39.223Z,14.80
2023-05-04T08:12:46.707Z,14.90
2023-05-04T08:17:52.353Z,15.00
2023-05-04T08:22:58.388Z,15.40
2023-05-04T08:28:04.502Z,15.60
2023-05-04T08:33:10.620Z,15.80
2023-05-04T08:38:17.512Z,16.00
2023-05-04T08:43:24.765Z,15.90
2023-05-04T08:48:30.682Z,15.90
2023-05-04T08:53:40.963Z,16.40
2023-05-04T08:58:53.068Z,16.60
2023-05-04T09:03:59.588Z,17.40
2023-05-04T09:09:07.093Z,17.30
2023-05-04T09:14:13.579Z,16.90
2023-05-04T09:19:20.809Z,17.30
2023-05-04T09:24:31.479Z,16.80
2023-05-04T09:29:38.733Z,17.00
2023-05-04T09:34:51.431Z,17.40
2023-05-04T09:39:59.014Z,18.20
2023-05-04T09:45:10.018Z,17.20
2023-05-04T09:50:22.449Z,17.40
2023-05-04T09:55:28.842Z,17.70
2023-05-04T10:00:34.562Z,17.80
2023-05-04T10:05:40.357Z,17.80
2023-05-04T10:10:47.682Z,17.90
2023-05-04T10:16:02.887Z,18.50
2023-05-04T10:21:20.581Z,18.60
2023-05-04T10:26:43.977Z,18.80
2023-05-04T10:31:49.448Z,18.90
2023-05-04T10:36:55.285Z,18.60
2023-05-04T10:42:07.846Z,19.10
2023-05-04T10:47:15.356Z,18.90
2023-05-04T10:52:22.347Z,19.70
2023-05-04T10:57:30.262Z,20.10
2023-05-04T11:02:37.632Z,20.20
2023-05-04T11:07:43.952Z,19.90
2023-05-04T11:12:49.383Z,20.10
2023-05-04T11:17:54.826Z,19.00
2023-05-04T11:23:00.222Z,19.30
2023-05-04T11:28:06.648Z,18.30
2023-05-04T11:33:16.898Z,19.00
2023-05-04T11:38:22.640Z,18.70
2023-05-04T11:43:28.608Z,19.40
2023-05-04T11:48:37.797Z,19.00
2023-05-04T11:53:43.193Z,19.30
2023-05-04T11:58:48.843Z,19.90
2023-05-04T12:03:55.948Z,19.50
2023-05-04T12:09:07.357Z,19.40
2023-05-04T12:14:14.337Z,19.80
2023-05-04T12:19:20.021Z,19.50
2023-05-04T12:24:28.038Z,19.20
2023-05-04T12:29:33.587Z,19.80
2023-05-04T12:34:39.185Z,18.70
2023-05-04T12:39:44.638Z,19.70
2023-05-04T12:44:50.961Z,20.00
2023-05-04T12:49:56.555Z,20.10
2023-05-04T12:55:03.210Z,18.30
2023-05-04T13:00:10.337Z,18.20
2023-05-04T13:05:17.785Z,19.10
2023-05-04T13:10:24.079Z,19.30
2023-05-04T13:15:29.546Z,18.10
2023-05-04T13:20:36.125Z,18.10
2023-05-04T13:25:42.252Z,18.30
2023-05-04T13:30:48.367Z,18.10
2023-05-04T13:35:53.925Z,18.20
2023-05-04T13:40:59.594Z,18.30
2023-05-04T13:46:05.581Z,18.60
2023-05-04T13:51:11.549Z,19.10
2023-05-04T13:56:18.251Z,19.40
2023-05-04T14:01:23.884Z,18.80
2023-05-04T14:06:31.512Z,18.10
2023-05-04T14:11:38.106Z,17.70
2023-05-04T14:16:43.607Z,17.50
2023-05-04T14:21:49.092Z,18.30
2023-05-04T14:26:54.812Z,18.90
2023-05-04T14:32:00.652Z,18.40
2023-05-04T14:37:06.511Z,17.70
2023-05-04T14:42:12.108Z,18.20
2023-05-04T14:47:19.251Z,17.50
2023-05-04T14:52:25.883Z,17.50
2023-05-04T14:57:31.612Z,17.40
2023-05-04T15:02:40.439Z,17.00
2023-05-04T15:07:46.807Z,16.80
2023-05-04T15:12:53.345Z,16.70
2023-05-04T15:17:59.932Z,16.50
2023-05-04T15:23:07.537Z,16.50
2023-05-04T15:28:13.543Z,16.50
2023-05-04T15:33:19.412Z,16.80
2023-05-04T15:38:28.927Z,16.50
2023-05-04T15:43:34.974Z,16.30
2023-05-04T15:48:40.842Z,16.40
2023-05-04T15:53:48.881Z,16.10
2023-05-04T15:58:54.296Z,16.20
2023-05-04T16:03:59.964Z,16.20
2023-05-04T16:09:07.056Z,16.10
2023-05-04T16:14:15.597Z,15.80
2023-05-04T16:19:22.934Z,15.70
2023-05-04T16:24:29.823Z,15.80
2023-05-04T16:29:35.665Z,16.00
2023-05-04T16:34:41.367Z,16.00
2023-05-04T16:39:47.110Z,16.00
2023-05-04T16:44:53.272Z,15.60
2023-05-04T16:49:59.584Z,15.60
2023-05-04T16:55:10.038Z,15.60
2023-05-04T17:00:16.092Z,15.70
2023-05-04T17:05:23.202Z,15.50
2023-05-04T17:10:28.745Z,15.40
2023-05-04T17:15:34.889Z,15.10
2023-05-04T17:20:40.896Z,15.00
2023-05-04T17:25:46.369Z,14.70
2023-05-04T17:30:54.133Z,14.90
2023-05-04T17:35:59.711Z,14.60
2023-05-04T17:41:05.948Z,14.50
2023-05-04T17:46:13.555Z,14.50
2023-05-04T17:51:19.626Z,14.50
2023-05-04T17:56:26.034Z,14.50
2023-05-04T18:01:33.161Z,14.30
2023-05-04T18:06:39.503Z,14.10
2023-05-04T18:11:45.265Z,14.20
2023-05-04T18:16:52.444Z,14.20
2023-05-04T18:21:59.363Z,13.90
2023-05-04T18:27:05.652Z,13.80
2023-05-04T18:32:11.914Z,13.50
2023-05-04T18:37:18.753Z,13.30
2023-05-04T18:42:27.240Z,13.20
2023-05-04T18:47:34.257Z,13.00
2023-05-04T18:52:40.082Z,12.90
2023-05-04T18:57:50.703Z,12.90
2023-05-04T19:02:58.440Z,12.90
2023-05-04T19:08:06.283Z,12.80
2023-05-04T19:13:13.084Z,12.60
2023-05-04T19:18:20.318Z,12.70
2023-05-04T19:23:28.559Z,12.40
2023-05-04T19:28:37.033Z,12.50
2023-05-04T19:33:48.307Z,12.90
2023-05-04T19:38:51.322Z,12.80
2023-05-04T19:43:57.425Z,12.80
2023-05-04T19:49:07.799Z,12.90
2023-05-04T19:54:16.930Z,12.50
2023-05-04T19:59:22.647Z,12.40
2023-05-04T20:04:30.405Z,12.30
2023-05-04T20:09:40.407Z,12.30
2023-05-04T20:14:47.867Z,12.20
2023-05-04T20:19:53.829Z,11.20
2023-05-04T20:25:00.177Z,11.30
2023-05-04T20:30:10.375Z,11.10
2023-05-04T20:35:17.267Z,11.00
2023-05-04T20:40:23.658Z,10.70
2023-05-04T20:45:31.890Z,10.80
2023-05-04T20:50:39.941Z,10.90
2023-05-04T20:55:45.971Z,10.70
2023-05-04T21:00:52.367Z,10.80
2023-05-04T21:05:59.548Z,10.70
2023-05-04T21:11:06.556Z,10.80
2023-05-04T21:16:13.389Z,10.30
2023-05-04T21:21:19.828Z,10.20
2023-05-04T21:26:25.698Z,10.00
2023-05-04T21:31:34.361Z,10.20
2023-05-04T21:36:41.651Z,10.10
2023-05-04T21:41:48.295Z,10.00
2023-05-04T21:46:55.470Z,9.00
2023-05-04T21:52:02.177Z,9.00
2023-05-04T21:57:07.905Z,9.30
2023-05-04T22:02:14.623Z,9.30
2023-05-04T22:07:20.599Z,9.40
2023-05-04T22:12:26.448Z,8.90
2023-05-04T22:17:33.122Z,8.80
2023-05-04T22:22:39.418Z,8.70
2023-05-04T22:27:47.767Z,8.60
2023-05-04T22:32:54.676Z,8.70
2023-05-04T22:38:00.428Z,8.70
2023-05-04T22:43:07.444Z,8.90
2023-05-04T22:48:15.084Z,8.80
2023-05-04T22:53:21.359Z,8.60
2023-05-04T22:58:27.364Z,8.50
2023-05-04T23:03:34.042Z,8.50
2023-05-04T23:08:39.629Z,8.20
2023-05-04T23:13:45.897Z,8.00
2023-05-04T23:18:52.202Z,7.50
2023-05-04T23:23:59.066Z,7.60
2023-05-04T23:29:06.631Z,7.90
2023-05-04T23:34:13.958Z,7.90
2023-05-04T23:39:20.757Z,7.80
2023-05-04T23:44:26.633Z,7.30
2023-05-04T23:49:32.382Z,7.20
2023-05-04T23:54:38.296Z,7.50
2023-05-04T23:59:44.603Z,7.40
